Friday, July 25, 2014, 2:43 AM EDT

KSEG, Selinsgrove Penn Valley Airport

Location: Selinsgrove, PA, United States Lat: 40.817
Local Time: 2:43 AM EDT ( 6:43 GMT) Lon: -76.867
Time Zone: US/Eastern Elev: 449 ft

Show me the last for .
Show Decoded

2014-07-25 01:53 METAR KSEG 250553Z AUTO 00000KT 9SM CLR 11/10 A3004 RMK AO2 SLP170 T01110100
                 10217 20111 51015 =
2014-07-25 00:53 METAR KSEG 250453Z AUTO 35003KT 10SM CLR 13/11 A3003 RMK AO2 SLP166 T01330111
                 402560133 =
2014-07-24 23:53 METAR KSEG 250353Z AUTO 33005KT 10SM CLR 15/11 A3001 RMK AO2 SLP160 T01500111 =
2014-07-24 22:53 METAR KSEG 250253Z AUTO 01005KT 10SM CLR 17/11 A2999 RMK AO2 SLP154 T01720111
                 53015 =
2014-07-24 21:53 METAR KSEG 250153Z AUTO 34004KT 10SM CLR 16/14 A2997 RMK AO2 SLP145 T01610139 =
2014-07-24 20:53 METAR KSEG 250053Z AUTO 34003KT 10SM FEW060 17/15 A2996 RMK AO2 SLP142 T01720150
                 =
2014-07-24 19:53 METAR KSEG 242353Z AUTO 01004KT 10SM SCT060 22/12 A2995 RMK AO2 SLP138 T02170122
                 10256 20217 53004 =
2014-07-24 17:53 METAR KSEG 242153Z AUTO 35008KT 10SM FEW060 24/13 A2993 RMK AO2 SLP132 T02440128
                 =
2014-07-24 16:53 METAR KSEG 242053Z AUTO 02005KT 10SM BKN060 24/13 A2993 RMK AO2 SLP134 T02440128
                 56006 =
2014-07-24 15:53 METAR KSEG 241953Z AUTO 32009KT 10SM BKN060 24/12 A2995 RMK AO2 SLP137 T02390122
                 =
2014-07-24 14:53 METAR KSEG 241853Z AUTO 35009KT 10SM BKN055 25/13 A2994 RMK AO2 SLP134 T02500133
                 =
2014-07-24 13:53 METAR KSEG 241753Z AUTO 02008KT 10SM BKN060 26/14 A2995 RMK AO2 SLP138 T02560139
                 10256 20194 58004 =
2014-07-24 12:53 METAR KSEG 241653Z AUTO 35010KT 10SM SCT050 23/13 A2996 RMK AO2 SLP140 T02330133
                 =
2014-07-24 11:53 METAR KSEG 241553Z AUTO 35008KT 10SM FEW045 FEW050 23/13 A2997 RMK AO2 SLP144
                 T02330133 =
2014-07-24 09:53 METAR KSEG 241353Z AUTO 35009G16KT 310V020 10SM CLR 22/15 A2995 RMK AO2 SLP140
                 T02220150 =
2014-07-24 06:53 METAR KSEG 241053Z AUTO 33005KT 10SM OVC060 19/15 A2995 RMK AO2 SLP137 T01940150
                 $ =
2014-07-24 05:53 METAR KSEG 240953Z AUTO 36004KT 10SM OVC055 19/14 A2994 RMK AO2 SLP133 T01940144
                 $ =
2014-07-24 03:53 METAR KSEG 240753Z AUTO 36004KT 10SM BKN050 20/15 A2991 RMK AO2 SLP123 T02000150
                 $ =
2014-07-24 02:53 METAR KSEG 240653Z AUTO 35004KT 10SM OVC049 21/15 A2992 RMK AO2 SLP127 T02060150
                 $ =

Support USWX by starting your Amazon purchase here.